Airfield :
LOGIN :

Register | Disclaimer

   EN    FR    IT 

 










Legend :    VFR   Marginal VFR   IFR   Intensive IFR   Very Intensive IFR
Visi :
Ceiling :
>= 8 km
>= 3000ft
5 to 8 km
1000 to 3000 ft
1500m to 5 km
500 to 1000 ft
800 to 1500m
200 to 500 ft
< 800m
< 200 ft
Symbols :   Thunderstorms  Fog  Heavy snow  Heavy precipitations  Wind > 20 kt
SIGMETs :     Misc.  Thunderstorms  Icing  Turbulence  Mountain Waves  Volcanic Ashes






- Airport Elevation : 416 ft
- IATA code : OVD


LEAS - Asturias

CURRENT METAR :
  • 261600Z 29005KT 260V320 9999 FEW036 14/12 Q1010 NOSIG

EXPIRED METARs :
  • 261530Z 30006KT 270V350 9999 FEW036 14/12 Q1010 NOSIG
  • 261500Z 30006KT 270V010 9999 FEW036 14/12 Q1010 NOSIG
  • 261430Z 31007KT 290V350 9999 FEW045 14/12 Q1010 NOSIG
  • 261400Z 32007KT 280V360 9999 FEW042 14/12 Q1010 NOSIG
  • 261330Z 32007KT 270V010 9999 FEW042 14/12 Q1010 NOSIG
  • 261300Z 30008KT 9999 FEW036 14/11 Q1010 NOSIG

TAF TAF LEAS
Valid from the 26 at 15:00 until the 27 at 15:00 UTC


261400Z 2615/2715 17007KT 9999 SCT040 TX16/2714Z TN09/2707Z
PROB30
TEMPO 2615/2617 34010KT



MET'MAP, your aeronautical weather chart ! - Copyright ORBIFLY December 2007 - Disclaimer

ORBIFLY MET'MAP TEAM :

Programming & Development : Alexandra Zaïnal
Concept & original design : Baudouin d'Aumeries
Assistance for programming : Marc-Olivier Méhu
Technical & hardware support : Manuel Goepfert

Contact : metmap@orbifly.com




SOURCES & CREDITS :

   NOAA